createdAt,value
2018-10-09T00:01:03.385Z,11.10
2018-10-09T00:03:32.340Z,11.00
2018-10-09T00:06:01.478Z,10.90
2018-10-09T00:08:30.502Z,11.00
2018-10-09T00:10:59.759Z,11.00
2018-10-09T00:13:28.799Z,11.00
2018-10-09T00:15:57.910Z,11.00
2018-10-09T00:18:26.678Z,11.00
2018-10-09T00:21:00.020Z,10.90
2018-10-09T00:23:28.604Z,10.90
2018-10-09T00:25:57.655Z,10.90
2018-10-09T00:28:26.647Z,10.90
2018-10-09T00:30:55.390Z,10.90
2018-10-09T00:33:24.436Z,10.80
2018-10-09T00:35:53.061Z,10.90
2018-10-09T00:38:22.211Z,10.90
2018-10-09T00:40:50.945Z,10.80
2018-10-09T00:43:22.847Z,10.80
2018-10-09T00:45:51.899Z,10.80
2018-10-09T00:48:20.314Z,10.80
2018-10-09T00:50:48.900Z,10.80
2018-10-09T00:53:17.386Z,10.80
2018-10-09T00:55:46.212Z,10.80
2018-10-09T00:58:14.900Z,10.80
2018-10-09T01:00:43.769Z,10.70
2018-10-09T01:03:12.211Z,10.70
2018-10-09T01:05:40.910Z,10.70
2018-10-09T01:08:10.856Z,10.60
2018-10-09T01:10:40.324Z,10.60
2018-10-09T01:13:09.561Z,10.50
2018-10-09T01:15:38.410Z,10.60
2018-10-09T01:18:07.653Z,10.60
2018-10-09T01:20:36.744Z,10.60
2018-10-09T01:23:06.927Z,10.60
2018-10-09T01:25:36.522Z,10.50
2018-10-09T01:28:05.589Z,10.50
2018-10-09T01:30:34.859Z,10.50
2018-10-09T01:33:04.143Z,10.60
2018-10-09T01:35:33.092Z,10.60
2018-10-09T01:38:02.262Z,10.50
2018-10-09T01:40:31.134Z,10.30
2018-10-09T01:42:59.835Z,10.40
2018-10-09T01:45:28.535Z,10.40
2018-10-09T01:47:57.109Z,10.40
2018-10-09T01:50:25.760Z,10.40
2018-10-09T01:52:54.578Z,10.40
2018-10-09T01:55:23.270Z,10.40
2018-10-09T01:57:51.954Z,10.30
2018-10-09T02:00:20.584Z,10.30
2018-10-09T02:02:49.668Z,10.30
2018-10-09T02:05:19.983Z,10.30
2018-10-09T02:07:49.502Z,10.30
2018-10-09T02:10:18.695Z,10.30
2018-10-09T02:12:47.933Z,10.30
2018-10-09T02:15:16.911Z,10.30
2018-10-09T02:17:45.881Z,10.30
2018-10-09T02:20:14.776Z,10.30
2018-10-09T02:22:43.648Z,10.20
2018-10-09T02:25:12.514Z,10.30
2018-10-09T02:27:41.403Z,10.30
2018-10-09T02:30:10.914Z,10.20
2018-10-09T02:32:39.823Z,10.20
2018-10-09T02:35:09.296Z,10.30
2018-10-09T02:37:38.105Z,10.30
2018-10-09T02:40:07.619Z,10.30
2018-10-09T02:42:37.116Z,10.20
2018-10-09T02:45:06.812Z,10.20
2018-10-09T02:47:35.282Z,10.10
2018-10-09T02:50:03.962Z,10.10
2018-10-09T02:52:32.564Z,10.10
2018-10-09T02:55:01.125Z,10.10
2018-10-09T02:57:29.753Z,10.10
2018-10-09T02:59:58.447Z,10.00
2018-10-09T03:02:27.382Z,10.00
2018-10-09T03:04:56.103Z,10.10
2018-10-09T03:07:25.022Z,10.10
2018-10-09T03:09:54.139Z,10.10
2018-10-09T03:12:23.335Z,10.10
2018-10-09T03:14:52.576Z,10.00
2018-10-09T03:22:27.406Z,10.00
2018-10-09T03:24:56.421Z,10.00
2018-10-09T03:27:25.337Z,10.00
2018-10-09T03:29:54.178Z,10.00
2018-10-09T03:32:23.027Z,9.90
2018-10-09T03:34:51.880Z,9.90
2018-10-09T03:37:20.814Z,10.00
2018-10-09T03:39:49.690Z,10.00
2018-10-09T03:42:18.545Z,9.90
2018-10-09T03:44:47.113Z,9.90
2018-10-09T03:47:15.754Z,9.90
2018-10-09T03:49:44.384Z,9.80
2018-10-09T03:52:12.942Z,9.80
2018-10-09T03:54:41.552Z,9.80
2018-10-09T03:57:10.088Z,9.80
2018-10-09T03:59:38.776Z,9.80
2018-10-09T04:02:08.448Z,9.80
2018-10-09T04:04:37.691Z,9.70
2018-10-09T04:07:06.882Z,9.70
2018-10-09T04:09:36.868Z,9.70
2018-10-09T04:12:05.962Z,9.70
2018-10-09T04:14:34.760Z,9.80
2018-10-09T04:17:03.689Z,9.70
2018-10-09T04:19:32.579Z,9.50
2018-10-09T04:22:01.336Z,9.40
2018-10-09T04:24:30.108Z,9.30
2018-10-09T04:26:58.930Z,9.50
2018-10-09T04:29:28.122Z,9.60
2018-10-09T04:31:56.886Z,9.70
2018-10-09T04:34:25.592Z,9.70
2018-10-09T04:36:54.570Z,9.70
2018-10-09T04:39:23.842Z,9.70
2018-10-09T04:41:53.032Z,9.70
2018-10-09T04:44:22.263Z,9.70
2018-10-09T04:46:50.992Z,9.70
2018-10-09T04:49:19.612Z,9.70
2018-10-09T04:51:48.439Z,9.60
2018-10-09T04:54:17.370Z,9.70
2018-10-09T04:56:47.335Z,9.70
2018-10-09T04:59:16.562Z,9.70
2018-10-09T05:01:46.466Z,9.70
2018-10-09T05:04:15.450Z,9.80
2018-10-09T05:06:44.138Z,9.90
2018-10-09T05:09:13.153Z,9.90
2018-10-09T05:11:42.160Z,9.90
2018-10-09T05:14:11.559Z,9.90
2018-10-09T05:16:41.850Z,10.00
2018-10-09T05:19:10.964Z,9.90
2018-10-09T05:21:40.461Z,9.90
2018-10-09T05:24:09.402Z,10.00
2018-10-09T05:26:38.114Z,10.00
2018-10-09T05:29:07.236Z,10.00
2018-10-09T05:31:36.121Z,10.00
2018-10-09T05:34:05.206Z,10.00
2018-10-09T05:36:34.629Z,10.00
2018-10-09T05:39:04.129Z,10.00
2018-10-09T05:41:32.729Z,10.10
2018-10-09T05:44:01.410Z,10.10
2018-10-09T05:46:30.405Z,10.10
2018-10-09T05:48:59.280Z,10.10
2018-10-09T05:51:28.048Z,10.20
2018-10-09T05:53:56.829Z,10.10
2018-10-09T05:56:25.681Z,10.20
2018-10-09T05:58:54.794Z,10.30
2018-10-09T06:01:24.195Z,10.30
2018-10-09T06:03:53.319Z,10.30
2018-10-09T06:06:22.565Z,10.30
2018-10-09T06:08:51.705Z,10.40
2018-10-09T06:11:24.487Z,10.30
2018-10-09T06:13:54.239Z,10.40
2018-10-09T06:16:24.254Z,10.30
2018-10-09T06:18:53.694Z,10.40
2018-10-09T06:21:23.068Z,10.40
2018-10-09T06:23:51.779Z,10.40
2018-10-09T06:26:20.437Z,10.40
2018-10-09T06:28:49.558Z,10.50
2018-10-09T06:31:18.866Z,10.60
2018-10-09T06:33:47.940Z,10.60
2018-10-09T06:36:17.020Z,10.70
2018-10-09T06:38:45.797Z,10.80
2018-10-09T06:41:14.398Z,10.80
2018-10-09T06:43:43.133Z,10.80
2018-10-09T06:46:16.029Z,11.00
2018-10-09T06:48:44.845Z,11.00
2018-10-09T06:51:13.619Z,11.10
2018-10-09T06:53:42.413Z,11.00
2018-10-09T06:56:11.713Z,11.00
2018-10-09T06:58:40.734Z,11.10
2018-10-09T07:06:29.808Z,11.20
2018-10-09T07:08:58.719Z,11.20
2018-10-09T07:11:27.560Z,11.20
2018-10-09T07:13:56.884Z,11.20
2018-10-09T07:16:28.700Z,11.20
2018-10-09T07:18:57.661Z,11.30
2018-10-09T07:21:26.841Z,11.40
2018-10-09T07:23:58.772Z,11.40
2018-10-09T07:26:28.302Z,11.40
2018-10-09T07:28:59.390Z,11.50
2018-10-09T07:31:28.791Z,11.40
2018-10-09T07:33:58.687Z,11.50
2018-10-09T07:36:28.067Z,11.50
2018-10-09T07:39:13.066Z,11.50
2018-10-09T07:41:42.152Z,11.50
2018-10-09T07:44:11.321Z,11.60
2018-10-09T07:46:40.548Z,11.60
2018-10-09T07:49:10.858Z,11.60
2018-10-09T07:51:40.003Z,11.70
2018-10-09T07:54:09.139Z,11.70
2018-10-09T07:56:49.900Z,11.70
2018-10-09T07:59:27.116Z,11.80
2018-10-09T08:01:57.171Z,11.80
2018-10-09T08:04:28.066Z,11.80
2018-10-09T08:06:57.645Z,11.90
2018-10-09T08:09:27.966Z,11.90
2018-10-09T08:11:57.613Z,12.00
2018-10-09T08:14:30.479Z,12.00
2018-10-09T08:17:00.850Z,12.10
2018-10-09T08:19:30.243Z,12.20
2018-10-09T08:21:59.313Z,12.30
2018-10-09T08:27:08.394Z,12.30
2018-10-09T08:29:38.121Z,12.30
2018-10-09T08:32:07.228Z,12.40
2018-10-09T08:34:36.722Z,12.50
2018-10-09T08:37:07.858Z,12.60
2018-10-09T08:39:37.882Z,12.80
2018-10-09T08:42:07.351Z,12.90
2018-10-09T08:44:35.924Z,13.00
2018-10-09T08:47:04.734Z,13.10
2018-10-09T08:49:33.613Z,13.30
2018-10-09T08:52:02.446Z,13.50
2018-10-09T08:54:31.468Z,13.50
2018-10-09T08:57:00.773Z,13.60
2018-10-09T08:59:30.285Z,13.60
2018-10-09T09:01:59.667Z,13.70
2018-10-09T09:04:28.519Z,13.90
2018-10-09T09:06:59.155Z,14.10
2018-10-09T09:09:28.223Z,14.20
2018-10-09T09:11:57.344Z,14.30
2018-10-09T09:14:26.616Z,14.40
2018-10-09T09:16:55.768Z,14.50
2018-10-09T09:19:25.254Z,14.60
2018-10-09T09:21:55.077Z,14.70
2018-10-09T09:24:25.725Z,14.80
2018-10-09T09:26:54.891Z,14.80
2018-10-09T09:29:24.092Z,14.90
2018-10-09T09:31:53.126Z,14.80
2018-10-09T09:34:22.098Z,14.90
2018-10-09T09:36:56.383Z,15.00
2018-10-09T09:39:25.706Z,15.10
2018-10-09T09:41:55.487Z,15.10
2018-10-09T09:49:22.466Z,15.30
2018-10-09T09:51:51.440Z,15.50
2018-10-09T09:54:20.937Z,15.60
2018-10-09T09:56:50.022Z,15.60
2018-10-09T09:59:19.394Z,15.60
2018-10-09T10:01:49.249Z,15.60
2018-10-09T10:04:19.062Z,15.60
2018-10-09T10:06:48.121Z,15.70
2018-10-09T10:09:18.442Z,15.90
2018-10-09T10:11:47.928Z,15.90
2018-10-09T10:26:04.230Z,16.30
2018-10-09T10:28:33.397Z,16.40
2018-10-09T10:31:03.064Z,16.40
2018-10-09T10:33:32.375Z,16.50
2018-10-09T10:36:02.466Z,16.50
2018-10-09T10:38:31.596Z,16.50
2018-10-09T10:41:01.512Z,16.60
2018-10-09T10:43:30.971Z,16.60
2018-10-09T10:45:59.553Z,16.70
2018-10-09T10:48:28.358Z,16.70
2018-10-09T10:50:57.744Z,16.80
2018-10-09T10:53:26.434Z,16.80
2018-10-09T10:55:55.468Z,16.90
2018-10-09T10:58:24.115Z,17.00
2018-10-09T11:00:52.833Z,17.00
2018-10-09T11:03:22.250Z,17.10
2018-10-09T11:05:51.636Z,17.10
2018-10-09T11:08:20.923Z,17.20
2018-10-09T11:10:50.132Z,17.20
2018-10-09T11:13:19.316Z,17.10
2018-10-09T11:15:48.792Z,17.20
2018-10-09T11:18:18.114Z,17.30
2018-10-09T11:20:48.855Z,17.30
2018-10-09T11:23:18.208Z,17.30
2018-10-09T11:25:47.733Z,17.30
2018-10-09T11:28:16.636Z,17.30
2018-10-09T11:30:48.132Z,17.30
2018-10-09T11:37:19.327Z,17.20
2018-10-09T11:39:48.262Z,17.30
2018-10-09T11:42:17.582Z,17.30
2018-10-09T11:44:46.761Z,17.30
2018-10-09T11:47:15.435Z,17.30
2018-10-09T11:49:44.462Z,17.40
2018-10-09T11:52:13.431Z,17.40
2018-10-09T11:54:46.444Z,17.40
2018-10-09T11:57:15.579Z,17.40
2018-10-09T11:59:45.181Z,17.40
2018-10-09T12:02:16.843Z,17.50
2018-10-09T12:04:46.143Z,17.60
2018-10-09T12:07:15.124Z,17.60
2018-10-09T12:09:44.506Z,17.70
2018-10-09T12:12:13.717Z,17.70
2018-10-09T12:14:43.640Z,17.80
2018-10-09T12:17:12.541Z,17.80
2018-10-09T12:19:43.047Z,17.90
2018-10-09T12:22:13.577Z,18.00
2018-10-09T12:24:42.654Z,18.10
2018-10-09T12:27:16.666Z,18.20
2018-10-09T12:29:47.732Z,18.20
2018-10-09T12:32:17.445Z,18.30
2018-10-09T12:34:53.511Z,18.30
2018-10-09T12:37:23.020Z,18.20
2018-10-09T12:39:52.522Z,18.10
2018-10-09T12:42:21.838Z,18.20
2018-10-09T12:44:51.953Z,18.10
2018-10-09T12:47:20.638Z,18.20
2018-10-09T12:49:49.362Z,18.20
2018-10-09T12:52:18.147Z,18.30
2018-10-09T12:54:47.346Z,18.20
2018-10-09T12:57:30.279Z,18.30
2018-10-09T13:00:01.683Z,18.30
2018-10-09T13:02:30.686Z,18.30
2018-10-09T13:05:00.976Z,18.30
2018-10-09T13:07:31.339Z,18.30
2018-10-09T13:10:00.142Z,18.20
2018-10-09T13:12:32.291Z,18.20
2018-10-09T13:15:01.221Z,18.20
2018-10-09T13:17:30.775Z,18.20
2018-10-09T13:20:01.540Z,18.20
2018-10-09T13:22:31.499Z,18.20
2018-10-09T13:25:00.829Z,18.20
2018-10-09T13:27:31.029Z,18.20
2018-10-09T13:30:00.314Z,18.30
2018-10-09T13:32:31.210Z,18.40
2018-10-09T13:35:00.697Z,18.50
2018-10-09T13:37:34.293Z,18.50
2018-10-09T13:40:03.704Z,18.50
2018-10-09T13:42:33.959Z,18.50
2018-10-09T13:45:11.708Z,18.40
2018-10-09T13:47:46.863Z,18.40
2018-10-09T13:50:17.181Z,18.40
2018-10-09T13:52:48.297Z,18.40
2018-10-09T13:55:18.247Z,18.30
2018-10-09T13:57:47.504Z,18.10
2018-10-09T14:00:17.102Z,18.00
2018-10-09T14:02:48.289Z,17.90
2018-10-09T14:05:26.215Z,17.90
2018-10-09T14:07:56.295Z,17.90
2018-10-09T14:10:26.010Z,18.00
2018-10-09T14:12:56.076Z,18.00
2018-10-09T14:15:27.133Z,18.10
2018-10-09T14:17:56.511Z,18.10
2018-10-09T14:20:26.599Z,18.20
2018-10-09T14:22:56.859Z,18.20
2018-10-09T14:25:30.294Z,18.20
2018-10-09T14:28:09.217Z,18.30
2018-10-09T14:30:40.084Z,18.30
2018-10-09T14:33:14.023Z,18.40
2018-10-09T14:35:43.668Z,18.30
2018-10-09T14:38:14.130Z,18.30
2018-10-09T14:40:55.323Z,18.30
2018-10-09T14:43:30.234Z,18.30
2018-10-09T14:46:02.883Z,18.30
2018-10-09T14:48:32.223Z,18.20
2018-10-09T14:51:01.765Z,18.20
2018-10-09T14:53:30.524Z,18.10
2018-10-09T14:55:59.194Z,18.10
2018-10-09T14:58:27.952Z,18.10
2018-10-09T15:00:57.555Z,18.10
2018-10-09T15:03:46.785Z,18.10
2018-10-09T15:06:28.926Z,18.10
2018-10-09T15:09:05.844Z,18.10
2018-10-09T15:11:35.964Z,18.00
2018-10-09T15:14:13.612Z,18.10
2018-10-09T15:16:55.023Z,18.00
2018-10-09T15:19:28.938Z,17.90
2018-10-09T15:21:58.545Z,17.80
2018-10-09T15:24:27.996Z,17.70
2018-10-09T15:26:59.916Z,17.60
2018-10-09T15:29:29.155Z,17.50
2018-10-09T15:32:03.974Z,17.40
2018-10-09T15:34:47.280Z,17.40
2018-10-09T15:37:28.223Z,17.30
2018-10-09T15:42:50.133Z,17.10
2018-10-09T15:45:19.292Z,16.90
2018-10-09T15:47:49.051Z,16.80
2018-10-09T15:50:18.141Z,16.70
2018-10-09T15:52:46.982Z,16.70
2018-10-09T15:55:15.695Z,16.60
2018-10-09T15:57:44.783Z,16.50
2018-10-09T16:00:13.885Z,16.50
2018-10-09T16:02:43.058Z,16.40
2018-10-09T16:05:12.802Z,16.40
2018-10-09T16:07:42.893Z,16.40
2018-10-09T16:10:12.311Z,16.40
2018-10-09T16:12:41.495Z,16.30
2018-10-09T16:15:10.884Z,16.20
2018-10-09T16:17:40.786Z,16.10
2018-10-09T16:20:10.174Z,16.00
2018-10-09T16:22:40.195Z,16.00
2018-10-09T16:25:10.162Z,16.00
2018-10-09T16:31:02.083Z,15.80
2018-10-09T16:33:31.697Z,15.70
2018-10-09T16:36:03.198Z,15.70
2018-10-09T16:38:34.054Z,15.60
2018-10-09T16:41:09.924Z,15.50
2018-10-09T16:43:40.324Z,15.50
2018-10-09T16:46:09.546Z,15.40
2018-10-09T16:48:38.706Z,15.30
2018-10-09T16:51:09.072Z,15.30
2018-10-09T16:53:38.045Z,15.10
2018-10-09T16:56:07.556Z,15.10
2018-10-09T16:58:36.742Z,15.10
2018-10-09T17:01:05.644Z,15.00
2018-10-09T17:03:40.344Z,15.00
2018-10-09T17:14:24.563Z,14.90
2018-10-09T17:17:01.458Z,14.80
2018-10-09T17:19:50.600Z,14.80
2018-10-09T17:22:33.365Z,14.80
2018-10-09T17:25:15.299Z,14.80
2018-10-09T17:28:08.138Z,14.70
2018-10-09T17:34:01.375Z,14.70
2018-10-09T17:46:56.305Z,14.60
2018-10-09T17:49:27.957Z,14.50
2018-10-09T17:51:57.209Z,14.40
2018-10-09T17:54:26.015Z,14.30
2018-10-09T17:56:54.707Z,14.30
2018-10-09T17:59:23.546Z,14.20
2018-10-09T18:01:52.285Z,14.20
2018-10-09T18:04:21.070Z,14.10
2018-10-09T18:06:50.021Z,14.10
2018-10-09T18:09:18.782Z,14.00
2018-10-09T18:11:47.591Z,14.00
2018-10-09T18:14:16.589Z,13.90
2018-10-09T18:16:45.646Z,13.90
2018-10-09T18:19:14.572Z,13.90
2018-10-09T18:21:43.752Z,13.80
2018-10-09T18:24:12.646Z,13.80
2018-10-09T18:26:41.621Z,13.80
2018-10-09T18:29:10.910Z,13.70
2018-10-09T18:31:39.631Z,13.70
2018-10-09T18:34:08.939Z,13.70
2018-10-09T18:36:38.001Z,13.70
2018-10-09T18:39:10.678Z,13.60
2018-10-09T18:41:39.982Z,13.50
2018-10-09T18:44:09.317Z,13.50
2018-10-09T18:51:54.507Z,13.50
2018-10-09T18:54:23.088Z,13.40
2018-10-09T18:56:51.657Z,13.40
2018-10-09T18:59:20.529Z,13.40
2018-10-09T19:01:49.204Z,13.40
2018-10-09T19:04:17.925Z,13.30
2018-10-09T19:06:46.631Z,13.30
2018-10-09T19:09:15.636Z,13.30
2018-10-09T19:11:44.862Z,13.30
2018-10-09T19:14:13.971Z,13.20
2018-10-09T19:16:43.416Z,13.20
2018-10-09T19:19:12.603Z,13.20
2018-10-09T19:21:41.314Z,13.20
2018-10-09T19:24:11.422Z,13.20
2018-10-09T19:26:40.496Z,13.20
2018-10-09T19:29:09.411Z,13.20
2018-10-09T19:31:40.122Z,13.10
2018-10-09T19:34:09.421Z,13.10
2018-10-09T19:36:38.520Z,13.10
2018-10-09T19:39:10.261Z,13.10
2018-10-09T19:41:40.988Z,13.10
2018-10-09T19:44:11.374Z,13.10
2018-10-09T19:46:40.922Z,13.00
2018-10-09T19:49:10.624Z,13.00
2018-10-09T19:51:39.972Z,12.90
2018-10-09T19:54:08.678Z,12.90
2018-10-09T19:56:37.803Z,12.90
2018-10-09T19:59:06.688Z,12.80
2018-10-09T20:01:35.701Z,12.80
2018-10-09T20:04:04.642Z,12.80
2018-10-09T20:06:33.497Z,12.80
2018-10-09T20:09:02.305Z,12.80
2018-10-09T20:11:33.625Z,12.80
2018-10-09T20:14:02.724Z,12.70
2018-10-09T20:16:33.379Z,12.70
2018-10-09T20:19:04.323Z,12.70
2018-10-09T20:21:33.401Z,12.60
2018-10-09T20:24:02.340Z,12.60
2018-10-09T20:26:31.286Z,12.60
2018-10-09T20:28:59.976Z,12.60
2018-10-09T20:36:23.288Z,12.50
2018-10-09T20:38:52.635Z,12.50
2018-10-09T20:41:21.727Z,12.50
2018-10-09T20:43:50.440Z,12.40
2018-10-09T20:46:19.180Z,12.40
2018-10-09T20:48:48.026Z,12.40
2018-10-09T20:51:16.921Z,12.40
2018-10-09T20:53:45.616Z,12.40
2018-10-09T20:56:14.369Z,12.40
2018-10-09T20:58:43.265Z,12.40
2018-10-09T21:01:12.420Z,12.40
2018-10-09T21:03:41.621Z,12.40
2018-10-09T21:06:10.317Z,12.20
2018-10-09T21:08:39.864Z,12.20
2018-10-09T21:11:09.452Z,12.20
2018-10-09T21:13:40.582Z,12.20
2018-10-09T21:16:11.469Z,12.20
2018-10-09T21:18:40.505Z,12.20
2018-10-09T21:21:10.185Z,12.10
2018-10-09T21:23:38.955Z,12.10
2018-10-09T21:26:07.960Z,12.10
2018-10-09T21:28:36.988Z,12.10
2018-10-09T21:31:05.974Z,12.00
2018-10-09T21:33:35.917Z,12.00
2018-10-09T21:36:04.846Z,12.00
2018-10-09T21:38:33.818Z,12.00
2018-10-09T21:41:02.647Z,11.90
2018-10-09T21:43:31.657Z,11.80
2018-10-09T21:46:00.396Z,11.90
2018-10-09T21:48:29.003Z,11.90
2018-10-09T21:50:57.504Z,11.90
2018-10-09T21:53:26.546Z,11.90
2018-10-09T21:55:55.263Z,11.90
2018-10-09T21:58:24.015Z,11.80
2018-10-09T22:00:58.100Z,11.80
2018-10-09T22:03:27.026Z,11.80
2018-10-09T22:05:55.908Z,11.70
2018-10-09T22:08:25.126Z,11.80
2018-10-09T22:10:54.546Z,11.80
2018-10-09T22:13:23.636Z,11.70
2018-10-09T22:15:53.057Z,11.70
2018-10-09T22:33:46.608Z,11.70
2018-10-09T22:36:15.521Z,11.60
2018-10-09T22:38:44.391Z,11.50
2018-10-09T22:41:13.071Z,11.50
2018-10-09T22:43:41.667Z,11.50
2018-10-09T22:46:10.446Z,11.50
2018-10-09T22:48:39.442Z,11.40
2018-10-09T22:51:08.601Z,11.30
2018-10-09T22:53:37.545Z,11.30
2018-10-09T22:56:07.031Z,11.40
2018-10-09T22:58:35.904Z,11.30
2018-10-09T23:01:04.950Z,11.30
2018-10-09T23:03:34.263Z,11.30
2018-10-09T23:06:03.188Z,11.30
2018-10-09T23:08:33.400Z,11.20
2018-10-09T23:11:02.231Z,11.20
2018-10-09T23:13:30.946Z,11.30
2018-10-09T23:15:59.809Z,11.20
2018-10-09T23:18:29.020Z,11.20
2018-10-09T23:20:58.303Z,11.10
2018-10-09T23:23:27.284Z,11.10
2018-10-09T23:25:56.480Z,11.10
2018-10-09T23:28:25.320Z,11.00
2018-10-09T23:30:54.098Z,11.00
2018-10-09T23:33:23.069Z,11.10
2018-10-09T23:35:51.951Z,11.00
2018-10-09T23:38:20.851Z,11.00
2018-10-09T23:40:49.722Z,11.00
2018-10-09T23:43:18.536Z,11.00
2018-10-09T23:45:47.654Z,10.90
2018-10-09T23:48:17.051Z,10.90
2018-10-09T23:50:45.832Z,10.90
2018-10-09T23:53:14.700Z,10.90
2018-10-09T23:55:43.404Z,10.90
2018-10-09T23:58:12.754Z,10.90
